CYCO

Details ICAO CYCO (YCO)
Name KUGLUKTUK
Region Canada
Timezone America/Cambridge_Bay (UTC-7.0)
Plans Departing 59
Arriving 56
Stats Elevation 74 ft / 23 m (AMSL)
Location 67.816700° -115.144000°
Runways 1
Magnetic Variation 15.165° E
Sunrise 2023-02-05 16:41:09 UTC / 2023-02-05 09:41:09 Local
Sunset 2023-02-05 23:10:36 UTC / 2023-02-05 16:10:36 Local
Advertisement - Login to hide

Runways

ID Width Length Bearing (true/mag) Surface Threshold Overrun Markings Lighting
12T 100 ft / 30 m 5,497 ft / 1,676 m 121.07° / 105.91° GRAVEL 0 ft / 0 m 0 ft / 0 m VISUAL EDGE THRESHOLD ODALS REIL-OMNI
30T 100 ft / 30 m 5,497 ft / 1,676 m 301.10° / 285.94° GRAVEL 0 ft / 0 m 0 ft / 0 m VISUAL EDGE THRESHOLD ODALS REIL-OMNI

Map

Weather


0- 5 10 15 20 25 30 35+ Temperature / °C

Clouds and Precipitation
Forecast for 2023-02-05 18:00 UTC. Updated 2 hours ago

Ground ~20,000 ft ~40,000 ft Winds

METAR

CYCO 051700Z 22015KT 15SM FEW080 M37/M41 A2972 RMK AC1 AC TR SLP069

TAF

TAF CYCO 051240Z 0513/0601 VRB03KT P6SM SKC TEMPO 0513/0515 24010KT BECMG 0515/0517 24015KT RMK NXT FCST BY 051900Z

Frequencies

Unicom 122.10 MHz MANDATORY FREQ
Warning: Do not use this data for real-world aviation or navigation. No guarantee of current accuracy is given.